ADDS METAR Data INFO
IDs: Format: Raw Decoded Include TAF

Data at: 2319 UTC 15 Jul 2018

KABQ 152252Z 03009KT 10SM VCTS FEW065CB SCT110 BKN150 BKN200 31/13 A3008 RMK AO2 LTG DSNT E SLP096 OCNL LTGICCG VC NE TS NE STNRY CB DSNT SE VCSH NE AND E T03110128
KABQ 152210Z VRB04KT 10SM VCTS FEW065CB SCT080 SCT150 BKN200 31/12 A3009 RMK AO2 OCNL LTGICCG VC N-NE TS N-NE MOV SW VCSH N-NE T03110117
KABQ 152152Z 06005KT 10SM SCT065 SCT080 SCT150 BKN200 32/12 A3010 RMK AO2 LTG DSNT NE SLP097 CB DSNT NE SHRA DSNT NE T03170122
KABQ 152052Z 20008KT 10SM SCT065CB SCT150 SCT180 31/12 A3011 RMK AO2 SLP102 CB NE STNRY T03110122 58027
KABQ 151952Z 08004KT 10SM FEW065 FEW150 FEW180 30/12 A3015 RMK AO2 SLP116 CB DSNT N AND SE SHRA DSNT N AND SE T03000122
KABQ 151932Z 16007KT 10SM FEW065CB FEW150 FEW180 29/12 A3016 RMK AO2 LTG DSNT E CB E STNRY CB DSNT SE SHRA DSNT SE T02940122
KABQ 151912Z 20003KT 10SM VCTS FEW065CB FEW180 FEW250 29/14 A3017 RMK AO2 LTG DSNT E AND SE FRQ LTGICCG VC E TS E STNRY VCSH E T02940144
KABQ 151852Z 24005KT 10SM FEW065 FEW180 FEW250 29/15 A3018 RMK AO2 SLP130 TCU DSNT SE T02890150
KABQ 151752Z VRB05KT 10SM FEW065 BKN180 28/16 A3021 RMK AO2 SLP141 TCU DSNT SE T02780161 10278 20194 58005
KABQ 151652Z COR 17005KT 10SM FEW060 BKN170 26/16 A3022 RMK AO2 SLP149 T02560156
KABQ 151552Z VRB05KT 10SM FEW060 FEW180 SCT300 24/16 A3022 RMK AO2 SLP151 T02440156
KABQ 151452Z 18005KT 10SM FEW060 FEW180 FEW250 22/16 A3023 RMK AO2 SLP156 T02220156 51008
KABQ 151352Z 00000KT 10SM FEW180 FEW300 22/14 A3022 RMK AO2 SLP154 T02170144
KABQ 151252Z 18004KT 10SM FEW180 SCT300 19/15 A3021 RMK AO2 SLP160 T01940150
KABQ 151152Z 18003KT 10SM FEW180 SCT300 19/16 A3020 RMK AO2 SLP154 70062 T01940161 10222 20183 55002
KABQ 151052Z 13005KT 10SM FEW180 FEW300 19/17 A3019 RMK AO2 SLP153 T01890172
KABQ 150952Z 34005KT 10SM SCT180 21/16 A3020 RMK AO2 SLP131 T02110156
KABQ 150852Z 35005KT 10SM FEW120 BKN180 22/16 A3020 RMK AO2 SLP134 T02170161 58006
KABQ 150752Z 34005KT 10SM FEW120 BKN160 22/16 A3021 RMK AO2 SLP138 T02170161
KABQ 150652Z 35004KT 10SM BKN120 OVC160 22/16 A3022 RMK AO2 SLP141 T02220161 403220194
KABQ 150552Z 12004KT 10SM BKN160 BKN210 22/16 A3022 RMK AO2 SLP147 60001 T02170161 10244 20217 50005
KABQ 150452Z 10007KT 10SM FEW100 BKN160 BKN220 22/16 A3024 RMK AO2 SLP153 T02220161
KABQ 150352Z 10004KT 10SM FEW100 SCT160 OVC220 23/16 A3022 RMK AO2 SLP148 T02280161
KABQ 150252Z 11006KT 10SM FEW070 FEW130 SCT160 BKN220 23/17 A3021 RMK AO2 SLP149 CB DSNT NW 60001 T02280167 53013
KABQ 150152Z 13008KT 10SM FEW070 SCT130 BKN160 BKN250 23/17 A3018 RMK AO2 SLP138 CB DSNT NE-E AND NW T02330167
KABQ 150052Z 08008KT 10SM FEW050CB FEW075CB BKN160 BKN250 22/17 A3017 RMK AO2 LTG DSNT NW RAE02 SLP143 CBMAM OHD-W SHRA DSNT NW P0001 T02170167
KABQ 150032Z 07006KT 10SM SCT075 BKN150 BKN250 22/17 A3017 RMK AO2 LTG DSNT W-N RAE02 SHRA DSNT NW P0001 T02170172 $
KABQ 150017Z 11008KT 10SM VCTS FEW050CB SCT065 BKN100 BKN250 22/17 A3017 RMK AO2 LTG DSNT N AND NW RAE02 OCNL LTGICCG VC NW TS NW MOV SW VCSH NW P0001 T02220172 $
KABQ 150008Z 16008KT 10SM FEW050 SCT065 BKN100 BKN250 22/17 A3017 RMK AO2 LTG DSNT N AND NW RAE02 SHRA DSNT NW-N P0001 T02220167 $
KABQ 142352Z COR 19016G31KT 10SM VCTS -RA FEW050 SCT065CB BKN100 BKN250 22/15 A3016 RMK AO2 PK WND 18034/2341 WSHFT 2239 LTG DSNT N AND NW TSE49 SLP141 OCNL LTGICCG VC SW AND W-N TS SW AND W-N MOV SW P0049 60061 T02170150 1
KABQ 142345Z 20022G34KT 5SM -TSRA FEW050CB SCT070CB BKN100 BKN250 21/15 A3018 RMK AO2 PK WND 18034/2341 WSHFT 2239 LTG DSNT NW-NE OCNL LTGICCG W-N TS W-N MOV SW MTNS OBSC NE P0048 T02110150 $
KABQ 142333Z 16019KT 5SM -TSRA FEW035CB BKN050CB BKN070 BKN250 21/17 A3018 RMK AO2 PK WND 16033/2316 WSHFT 2239 LTG DSNT NW-NE FRQ LTGICCG OHD-N TS OHD-N MOV SW MTNS OBSC NE-SE P0047 T02060172 $
KABQ 142307Z 16022KT 2SM TSRA SCT035CB BKN075CB BKN100 BKN250 23/18 A3018 RMK AO2 PK WND 14031/2254 WSHFT 2239 LTG DSNT N-SE FRQ LTGICCG OHD TS OHD MOV SW MTNS OBSC NE-SE P0037 T02280178 $
KABQ 142258Z 15022G31KT 1SM +TSRA FEW040CB BKN080CB BKN100 BKN250 21/18 A3017 RMK AO2 PK WND 14031/2254 WSHFT 2239 LTG DSNT ALQDS PRESRR CONS LTGICCG OHD TS OHD MOV SW MTNS OBSC NE-SE P0020 T02110183 $
KABQ 142252Z 12023G32KT 2SM TSRA FEW040CB BKN080CB BKN100 BKN250 22/18 A3015 RMK AO2 PK WND 12032/2246 WSHFT 2230 LTG DSNT ALQDS RAB01 TSB20 SLP133 CONS LTGICCG OHD TS OHD MOV SW MTNS OBSC NE-SE P0012 T02170183 $
KABQ 142247Z COR 12025G32KT 2SM -TSRA FEW040CB BKN080CB BKN100 BKN250 26/17 A3014 RMK AO2 PK WND 12032/2246 WSHFT 2230 LTG DSNT NE-S RAB01 TSB20 FRQ LTGICCG OHD TS OHD MOV SW MTNS OBSC NE-SE P0007
KABQ 142226Z 28007KT 10SM -TSRA FEW040CB BKN075CB BKN130 BKN250 28/15 A3014 RMK AO2 LTG DSNT NE AND SE RAB01 TSB20 OCNL LTGICCG OHD TS OHD MOV SW MTNS OBSC NE AND SE P0005 T02780150
KABQ 142152Z COR 21008KT 10SM BKN080 BKN100 BKN250 32/13 A3014 RMK AO2 LTG DSNT SE SLP108 TCU DSNT NE-SE T03220128
KABQ 142052Z 18005KT 10SM BKN075 BKN250 31/13 A3016 RMK AO2 LTG DSNT E SLP116 CB DSNT SE-S AND W-NW T03110128 56026
KABQ 141952Z 36006KT 10SM SCT070 SCT150 31/12 A3018 RMK AO2 SLP126 CB DSNT N-NE AND SW-W T03060122
KABQ 141852Z 26006KT 10SM FEW070TCU SCT150 29/12 A3022 RMK AO2 SLP139 TCU NE-SE CB DSNT SW-W T02940122
KABQ 141752Z 00000KT 10SM FEW060 SCT140 28/12 A3025 RMK AO2 SLP152 CB DSNT S AND W T02830122 10283 20200 58009
KABQ 141652Z VRB05KT 10SM FEW050 FEW120 27/13 A3026 RMK AO2 SLP162 CB DSNT S T02670133 $
KABQ 141552Z 29003KT 10SM FEW040 FEW120 FEW300 25/14 A3027 RMK AO2 SLP166 TCU DSNT S T02500139 $
KABQ 141452Z 26006KT 10SM FEW040 FEW120 FEW300 23/14 A3028 RMK AO2 SLP171 T02280144 51006 $
KABQ 141352Z 00000KT 10SM FEW120 SCT180 22/14 A3027 RMK AO2 SLP167 T02220139 $
KABQ 141252Z 02003KT 10SM FEW120 BKN180 21/14 A3026 RMK AO2 SLP165 T02060139 $
KABQ 141152Z COR 33004KT 10SM SCT140 SCT200 21/13 A3026 RMK AO2 SLP165 70003 T02060133 10233 20206 55000 $